EGBB/BHX METAR and TAF weather

Enter ICAO airport designator
Station Type Date Time Source
EGBB METAR 2018/01/22 19:50 UTC NOAA

EGBB 221950Z 25006KT 200V280 9999 BKN031 07/04 Q1017


Station Type Date Time Source
EGBB Decoded METAR 2018/01/22 19:50 UTC NOAA

Birmingham / Airport, United Kingdom (EGBB) 52-27N 001-44W 0M
Jan 22, 2018 - 02:50 PM EST / 2018.01.22 1950 UTC
Wind: from the WSW (250 degrees) at 7 MPH (6 KT) (direction variable):0
Visibility: greater than 7 mile(s):0
Sky conditions: mostly cloudy
Temperature: 44 F (7 C)
Dew Point: 39 F (4 C)
Relative Humidity: 81%
Pressure (altimeter): 30.03 in. Hg (1017 hPa)
ob: EGBB 221950Z 25006KT 200V280 9999 BKN031 07/04 Q1017
cycle: 20

Station Type Date Time Source
EGBB TAF 2018/01/22 18:15 UTC NOAA

TAF EGBB 221702Z 2218/2318 24007KT 9999 SCT040
BECMG 2303/2306 18012KT
TEMPO 2303/2318 6000 -RA BKN010
TEMPO 2304/2318 20017G27KT PROB30
TEMPO 2304/2311 4000 RADZ BKN007 PROB30
TEMPO 2314/2317 BKN007


Example: see airport list